createdAt,value
2022-07-31T00:01:21.436Z,98104.25
2022-07-31T00:03:48.187Z,98081.91
2022-07-31T00:06:15.158Z,98101.16
2022-07-31T00:08:41.809Z,98054.91
2022-07-31T00:11:11.716Z,98078.31
2022-07-31T00:13:57.197Z,98068.38
2022-07-31T00:16:25.741Z,98067.56
2022-07-31T00:18:52.625Z,98076.88
2022-07-31T00:21:19.543Z,98057.59
2022-07-31T00:23:46.265Z,98048.16
2022-07-31T00:26:12.967Z,98061.13
2022-07-31T00:28:39.655Z,98033.88
2022-07-31T00:31:06.436Z,98031.22
2022-07-31T00:33:33.123Z,98025.38
2022-07-31T00:35:59.854Z,98051.06
2022-07-31T00:38:27.424Z,98047.47
2022-07-31T00:40:54.718Z,98038.78
2022-07-31T00:43:21.790Z,98053.41
2022-07-31T00:45:56.258Z,98024.78
2022-07-31T00:48:26.274Z,98037.97
2022-07-31T00:50:54.637Z,98017.63
2022-07-31T00:53:22.723Z,98021.47
2022-07-31T00:55:51.480Z,98015.44
2022-07-31T00:58:20.159Z,98007.66
2022-07-31T01:00:47.223Z,97986.78
2022-07-31T01:03:14.699Z,98025.63
2022-07-31T01:05:41.924Z,97995.56
2022-07-31T01:08:08.898Z,98010.19
2022-07-31T01:11:03.196Z,97980.38
2022-07-31T01:13:36.007Z,97983.94
2022-07-31T01:16:05.076Z,97983.38
2022-07-31T01:18:35.112Z,97990.50
2022-07-31T01:21:06.459Z,97961.03
2022-07-31T01:24:11.567Z,97982.44
2022-07-31T01:26:48.616Z,97977.69
2022-07-31T01:29:27.659Z,97953.41
2022-07-31T01:32:13.697Z,97947.25
2022-07-31T01:34:46.864Z,97928.19
2022-07-31T01:37:27.769Z,97932.84
2022-07-31T01:40:03.210Z,97888.81
2022-07-31T01:42:31.851Z,97886.28
2022-07-31T01:45:01.964Z,97891.00
2022-07-31T01:47:31.193Z,97888.41
2022-07-31T01:49:58.747Z,97869.94
2022-07-31T01:52:28.491Z,97890.56
2022-07-31T01:54:57.061Z,97896.09
2022-07-31T01:57:24.746Z,97901.66
2022-07-31T01:59:56.366Z,97896.50
2022-07-31T02:02:25.427Z,97918.84
2022-07-31T02:04:53.839Z,97938.41
2022-07-31T02:07:22.060Z,97954.34
2022-07-31T02:09:58.240Z,97931.50
2022-07-31T02:12:32.215Z,97937.91
2022-07-31T02:15:02.190Z,97937.66
2022-07-31T02:17:29.134Z,97936.25
2022-07-31T02:20:00.147Z,97949.44
2022-07-31T02:22:27.963Z,97946.34
2022-07-31T02:24:54.934Z,97951.31
2022-07-31T02:27:54.586Z,97951.09
2022-07-31T02:30:12.609Z,97940.88
2022-07-31T02:32:41.027Z,97975.34
2022-07-31T02:35:08.993Z,97960.50
2022-07-31T02:37:37.950Z,97961.31
2022-07-31T02:40:06.000Z,97949.34
2022-07-31T02:42:32.963Z,97951.59
2022-07-31T02:45:02.085Z,97954.41
2022-07-31T02:47:29.541Z,97964.59
2022-07-31T02:49:58.101Z,97953.63
2022-07-31T02:52:25.560Z,97950.13
2022-07-31T02:54:52.912Z,97945.53
2022-07-31T02:57:19.717Z,97953.31
2022-07-31T02:59:46.556Z,97946.16
2022-07-31T03:02:13.385Z,97947.53
2022-07-31T03:04:40.134Z,97949.25
2022-07-31T03:07:06.979Z,97930.53
2022-07-31T03:09:33.773Z,97952.31
2022-07-31T03:12:01.831Z,97960.81
2022-07-31T03:14:33.098Z,97985.31
2022-07-31T03:17:00.610Z,97963.31
2022-07-31T03:19:28.957Z,97966.94
2022-07-31T03:21:56.485Z,97979.84
2022-07-31T03:24:24.810Z,97989.25
2022-07-31T03:26:51.597Z,97972.44
2022-07-31T03:29:41.818Z,97978.47
2022-07-31T03:32:06.585Z,97994.72
2022-07-31T03:34:33.825Z,97953.97
2022-07-31T03:37:00.520Z,97990.56
2022-07-31T03:39:27.212Z,97979.53
2022-07-31T03:41:56.884Z,97995.81
2022-07-31T03:44:24.991Z,97985.34
2022-07-31T03:46:52.617Z,97985.34
2022-07-31T03:49:20.202Z,97967.19
2022-07-31T03:51:47.072Z,97989.50
2022-07-31T03:54:13.842Z,97972.16
2022-07-31T03:56:44.978Z,97984.28
2022-07-31T03:59:14.163Z,97997.22
2022-07-31T04:01:57.911Z,97978.78
2022-07-31T04:04:25.650Z,97981.28
2022-07-31T04:06:52.895Z,97991.16
2022-07-31T04:09:20.555Z,97996.13
2022-07-31T04:11:47.215Z,97982.38
2022-07-31T04:14:13.868Z,97979.31
2022-07-31T04:16:40.514Z,97965.00
2022-07-31T04:19:07.240Z,97958.94
2022-07-31T04:21:34.078Z,97963.56
2022-07-31T04:24:01.636Z,97974.00
2022-07-31T04:26:29.288Z,97983.06
2022-07-31T04:28:55.962Z,97978.06
2022-07-31T04:31:24.006Z,97995.16
2022-07-31T04:33:55.937Z,97986.09
2022-07-31T04:36:29.779Z,97985.28
2022-07-31T04:38:56.938Z,98000.72
2022-07-31T04:41:23.708Z,97981.97
2022-07-31T04:43:50.343Z,97960.53
2022-07-31T04:46:17.846Z,97974.00
2022-07-31T04:48:45.074Z,97978.94
2022-07-31T04:51:19.910Z,97974.81
2022-07-31T04:53:47.267Z,97963.53
2022-07-31T04:56:32.977Z,97980.84
2022-07-31T04:59:01.880Z,97988.28
2022-07-31T05:01:28.671Z,97974.25
2022-07-31T05:03:55.403Z,97992.72
2022-07-31T05:06:22.528Z,97991.88
2022-07-31T05:08:49.231Z,97982.50
2022-07-31T05:11:24.790Z,97983.06
2022-07-31T05:13:56.792Z,98017.13
2022-07-31T05:16:24.117Z,98015.03
2022-07-31T05:18:54.435Z,97988.22
2022-07-31T05:21:21.697Z,97990.81
2022-07-31T05:23:49.573Z,98027.53
2022-07-31T05:26:18.029Z,97982.97
2022-07-31T05:28:46.630Z,97995.69
2022-07-31T05:31:13.637Z,97984.47
2022-07-31T05:33:40.328Z,98005.03
2022-07-31T05:36:07.428Z,98016.22
2022-07-31T05:38:34.592Z,98013.47
2022-07-31T05:41:01.449Z,98003.06
2022-07-31T05:43:28.265Z,98026.72
2022-07-31T05:45:55.880Z,98020.06
2022-07-31T05:48:23.338Z,97996.66
2022-07-31T05:50:51.500Z,98019.19
2022-07-31T05:53:20.575Z,98017.25
2022-07-31T05:55:48.889Z,98015.31
2022-07-31T05:58:17.700Z,98046.13
2022-07-31T06:00:46.413Z,98035.56
2022-07-31T06:03:13.529Z,98038.03
2022-07-31T06:05:41.472Z,98035.56
2022-07-31T06:08:09.949Z,98012.88
2022-07-31T06:10:37.618Z,98023.13
2022-07-31T06:13:05.272Z,98039.69
2022-07-31T06:15:36.082Z,98019.72
2022-07-31T06:18:03.865Z,97997.97
2022-07-31T06:20:30.893Z,97991.75
2022-07-31T06:22:57.647Z,97998.44
2022-07-31T06:25:30.955Z,97990.75
2022-07-31T06:28:05.247Z,98021.16
2022-07-31T06:30:37.213Z,98038.53
2022-07-31T06:33:08.446Z,97994.84
2022-07-31T06:35:35.335Z,98014.81
2022-07-31T06:38:02.017Z,98018.22
2022-07-31T06:40:28.677Z,98018.53
2022-07-31T06:42:55.620Z,98033.66
2022-07-31T06:45:48.567Z,98024.22
2022-07-31T06:48:15.211Z,98009.16
2022-07-31T06:50:41.903Z,98020.06
2022-07-31T06:53:08.593Z,98019.66
2022-07-31T06:55:35.311Z,98016.16
2022-07-31T06:58:01.983Z,98036.00
2022-07-31T07:00:29.312Z,98022.09
2022-07-31T07:02:56.184Z,98023.09
2022-07-31T07:05:22.886Z,98026.06
2022-07-31T07:07:49.537Z,98018.81
2022-07-31T07:10:16.296Z,98029.97
2022-07-31T07:12:42.988Z,98039.66
2022-07-31T07:15:10.274Z,98021.69
2022-07-31T07:17:36.969Z,98032.91
2022-07-31T07:20:04.133Z,98015.13
2022-07-31T07:22:32.773Z,98019.44
2022-07-31T07:25:01.145Z,98003.81
2022-07-31T07:27:27.950Z,98032.94
2022-07-31T07:29:54.581Z,98007.38
2022-07-31T07:32:22.686Z,98035.56
2022-07-31T07:34:49.356Z,98020.16
2022-07-31T07:37:27.103Z,98024.59
2022-07-31T07:39:53.778Z,98023.69
2022-07-31T07:42:20.518Z,98008.56
2022-07-31T07:44:47.183Z,98018.56
2022-07-31T07:47:13.812Z,97975.50
2022-07-31T07:49:40.549Z,98023.50
2022-07-31T07:52:07.426Z,98012.34
2022-07-31T07:54:34.096Z,98021.06
2022-07-31T07:57:00.832Z,98017.13
2022-07-31T07:59:27.600Z,98026.91
2022-07-31T08:01:54.229Z,98013.84
2022-07-31T08:04:20.861Z,98008.38
2022-07-31T08:06:47.589Z,98012.63
2022-07-31T08:09:15.484Z,98029.97
2022-07-31T08:11:42.227Z,98005.56
2022-07-31T08:14:09.143Z,98010.34
2022-07-31T08:16:35.988Z,98020.00
2022-07-31T08:19:02.717Z,97998.47
2022-07-31T08:21:29.497Z,97994.72
2022-07-31T08:23:56.202Z,98018.16
2022-07-31T08:26:23.024Z,98016.13
2022-07-31T08:28:54.140Z,97992.59
2022-07-31T08:31:22.800Z,97998.72
2022-07-31T08:33:49.520Z,98011.38
2022-07-31T08:36:37.985Z,98017.56
2022-07-31T08:39:05.175Z,98023.25
2022-07-31T08:41:38.971Z,97997.13
2022-07-31T08:44:09.541Z,98019.63
2022-07-31T08:46:40.528Z,97991.91
2022-07-31T08:49:09.925Z,98014.38
2022-07-31T08:51:50.871Z,97985.34
2022-07-31T08:54:20.251Z,98013.78
2022-07-31T08:56:52.351Z,97986.97
2022-07-31T08:59:19.868Z,97972.00
2022-07-31T09:01:46.604Z,98005.53
2022-07-31T09:04:15.786Z,98006.66
2022-07-31T09:06:42.482Z,97981.59
2022-07-31T09:09:09.236Z,97967.34
2022-07-31T09:11:47.368Z,97976.34
2022-07-31T09:14:16.244Z,98008.22
2022-07-31T09:16:47.722Z,97999.69
2022-07-31T09:19:51.982Z,97994.09
2022-07-31T09:22:01.636Z,97975.78
2022-07-31T09:24:31.580Z,97979.19
2022-07-31T09:27:09.454Z,97998.69
2022-07-31T09:29:40.772Z,97994.34
2022-07-31T09:32:15.060Z,97971.00
2022-07-31T09:34:43.149Z,97997.63
2022-07-31T09:37:10.870Z,97983.69
2022-07-31T09:39:38.348Z,97978.97
2022-07-31T09:42:20.104Z,97969.81
2022-07-31T09:44:48.852Z,97980.16
2022-07-31T09:47:27.004Z,97980.88
2022-07-31T09:49:59.823Z,97948.06
2022-07-31T09:52:28.728Z,97983.00
2022-07-31T09:55:15.848Z,97983.69
2022-07-31T09:58:00.662Z,97968.22
2022-07-31T10:00:27.768Z,97965.66
2022-07-31T10:02:56.674Z,97966.66
2022-07-31T10:05:25.955Z,97982.66
2022-07-31T10:07:56.908Z,97982.81
2022-07-31T10:10:24.299Z,97944.22
2022-07-31T10:12:54.235Z,97934.53
2022-07-31T10:15:23.231Z,97944.97
2022-07-31T10:17:52.290Z,97957.00
2022-07-31T10:20:24.392Z,97921.50
2022-07-31T10:22:59.455Z,97948.94
2022-07-31T10:25:29.402Z,97943.06
2022-07-31T10:27:59.940Z,97948.25
2022-07-31T10:30:28.515Z,97948.38
2022-07-31T10:32:56.367Z,97944.22
2022-07-31T10:35:23.261Z,97916.41
2022-07-31T10:38:15.327Z,97934.84
2022-07-31T10:40:43.933Z,97941.84
2022-07-31T10:43:20.494Z,97944.56
2022-07-31T10:45:49.697Z,97919.22
2022-07-31T10:48:17.282Z,97926.63
2022-07-31T10:50:45.234Z,97936.72
2022-07-31T10:53:15.346Z,97935.50
2022-07-31T10:55:42.232Z,97918.28
2022-07-31T10:58:14.130Z,97933.19
2022-07-31T11:00:40.997Z,97917.69
2022-07-31T11:03:15.993Z,97907.88
2022-07-31T11:06:01.930Z,97919.25
2022-07-31T11:08:40.251Z,97918.06
2022-07-31T11:11:06.918Z,97911.88
2022-07-31T11:13:44.474Z,97915.53
2022-07-31T11:16:11.195Z,97927.84
2022-07-31T11:18:38.091Z,97927.34
2022-07-31T11:21:37.983Z,97939.31
2022-07-31T11:23:56.108Z,97929.63
2022-07-31T11:26:33.114Z,97951.34
2022-07-31T11:30:00.379Z,97925.16
2022-07-31T11:31:55.243Z,97931.50
2022-07-31T11:34:22.171Z,97922.28
2022-07-31T11:36:51.615Z,97914.63
2022-07-31T11:39:18.813Z,97912.44
2022-07-31T11:41:52.809Z,97940.13
2022-07-31T11:44:22.821Z,97939.53
2022-07-31T11:46:53.729Z,97922.28
2022-07-31T11:49:41.687Z,97920.63
2022-07-31T11:52:30.968Z,97934.31
2022-07-31T11:55:09.640Z,97924.09
2022-07-31T11:57:50.370Z,97930.88
2022-07-31T12:00:27.062Z,97921.41
2022-07-31T12:02:58.272Z,97903.22
2022-07-31T12:05:37.657Z,97921.16
2022-07-31T12:08:06.848Z,97904.59
2022-07-31T12:10:33.638Z,97899.94
2022-07-31T12:13:02.056Z,97902.44
2022-07-31T12:15:28.748Z,97898.00
2022-07-31T12:18:05.470Z,97910.00
2022-07-31T12:20:37.060Z,97903.66
2022-07-31T12:23:05.871Z,97890.88
2022-07-31T12:25:45.730Z,97875.31
2022-07-31T12:28:16.016Z,97873.88
2022-07-31T12:30:43.511Z,97872.09
2022-07-31T12:33:11.934Z,97871.22
2022-07-31T12:35:54.916Z,97841.41
2022-07-31T12:38:47.851Z,97860.16
2022-07-31T12:41:13.976Z,97863.03
2022-07-31T12:43:51.098Z,97854.00
2022-07-31T12:46:36.146Z,97866.22
2022-07-31T12:49:04.518Z,97894.50
2022-07-31T12:51:45.819Z,97869.78
2022-07-31T12:54:15.277Z,97872.91
2022-07-31T12:56:43.017Z,97875.63
2022-07-31T12:59:10.808Z,97862.09
2022-07-31T13:01:38.271Z,97876.63
2022-07-31T13:04:07.880Z,97840.03
2022-07-31T13:06:44.810Z,97852.59
2022-07-31T13:09:11.495Z,97855.63
2022-07-31T13:11:46.278Z,97857.59
2022-07-31T13:14:19.025Z,97845.00
2022-07-31T13:16:46.919Z,97844.03
2022-07-31T13:19:14.340Z,97854.66
2022-07-31T13:21:48.953Z,97844.50
2022-07-31T13:24:18.281Z,97836.81
2022-07-31T13:26:45.371Z,97833.06
2022-07-31T13:29:13.095Z,97821.59
2022-07-31T13:31:40.140Z,97849.94
2022-07-31T13:34:06.878Z,97826.34
2022-07-31T13:36:38.622Z,97828.66
2022-07-31T13:39:07.146Z,97809.44
2022-07-31T13:41:35.669Z,97820.09
2022-07-31T13:44:03.623Z,97840.06
2022-07-31T13:46:31.662Z,97842.81
2022-07-31T13:48:59.674Z,97829.06
2022-07-31T13:51:29.276Z,97822.00
2022-07-31T13:53:56.262Z,97820.19
2022-07-31T13:56:39.088Z,97812.13
2022-07-31T13:59:09.743Z,97818.22
2022-07-31T14:02:04.537Z,97807.44
2022-07-31T14:04:24.965Z,97807.78
2022-07-31T14:06:51.792Z,97814.81
2022-07-31T14:09:19.516Z,97831.81
2022-07-31T14:11:46.294Z,97825.13
2022-07-31T14:14:15.197Z,97813.66
2022-07-31T14:16:49.570Z,97819.06
2022-07-31T14:19:16.679Z,97817.06
2022-07-31T14:21:55.930Z,97798.22
2022-07-31T14:24:25.237Z,97832.34
2022-07-31T14:26:51.973Z,97804.91
2022-07-31T14:29:18.735Z,97798.41
2022-07-31T14:31:45.527Z,97789.03
2022-07-31T14:34:12.230Z,97811.66
2022-07-31T14:36:38.921Z,97788.88
2022-07-31T14:39:05.584Z,97799.53
2022-07-31T14:41:32.248Z,97786.78
2022-07-31T14:43:58.969Z,97811.03
2022-07-31T14:46:25.741Z,97785.34
2022-07-31T14:48:52.519Z,97789.94
2022-07-31T14:51:19.774Z,97781.06
2022-07-31T14:53:46.910Z,97782.88
2022-07-31T14:56:15.103Z,97792.41
2022-07-31T14:58:57.640Z,97793.72
2022-07-31T15:01:26.867Z,97795.00
2022-07-31T15:03:57.958Z,97773.38
2022-07-31T15:06:41.879Z,97788.44
2022-07-31T15:09:11.471Z,97796.63
2022-07-31T15:12:00.336Z,97784.44
2022-07-31T15:14:24.857Z,97816.44
2022-07-31T15:16:51.611Z,97815.25
2022-07-31T15:19:18.387Z,97810.25
2022-07-31T15:22:16.655Z,97810.25
2022-07-31T15:24:32.857Z,97817.22
2022-07-31T15:26:59.822Z,97849.91
2022-07-31T15:30:03.301Z,97859.41
2022-07-31T15:32:13.630Z,97860.50
2022-07-31T15:34:40.291Z,97827.03
2022-07-31T15:37:07.794Z,97797.88
2022-07-31T15:39:34.723Z,97810.00
2022-07-31T15:42:02.413Z,97817.75
2022-07-31T15:44:29.187Z,97814.50
2022-07-31T15:46:55.943Z,97802.72
2022-07-31T15:49:22.815Z,97802.72
2022-07-31T15:51:49.621Z,97812.81
2022-07-31T15:54:16.368Z,97808.41
2022-07-31T15:56:43.055Z,97808.91
2022-07-31T15:59:09.719Z,97802.63
2022-07-31T16:01:37.727Z,97816.69
2022-07-31T16:04:16.455Z,97778.75
2022-07-31T16:06:49.061Z,97823.59
2022-07-31T16:09:17.287Z,97798.81
2022-07-31T16:12:04.280Z,97815.59
2022-07-31T16:14:30.654Z,97819.66
2022-07-31T16:16:57.533Z,97785.34
2022-07-31T16:19:25.227Z,97822.69
2022-07-31T16:21:55.436Z,97806.50
2022-07-31T16:24:22.767Z,97804.56
2022-07-31T16:26:50.350Z,97798.78
2022-07-31T16:29:17.803Z,97804.22
2022-07-31T16:32:04.166Z,97831.44
2022-07-31T16:34:30.895Z,97837.22
2022-07-31T16:36:57.655Z,97852.75
2022-07-31T16:39:24.386Z,97847.91
2022-07-31T16:41:54.338Z,97854.25
2022-07-31T16:44:22.035Z,97880.44
2022-07-31T16:46:54.226Z,97909.34
2022-07-31T16:49:35.394Z,97906.63
2022-07-31T16:52:03.372Z,97904.41
2022-07-31T16:54:30.025Z,97870.84
2022-07-31T16:56:56.718Z,97882.38
2022-07-31T16:59:23.437Z,97893.13
2022-07-31T17:01:53.753Z,97892.31
2022-07-31T17:04:27.494Z,97914.91
2022-07-31T17:06:54.655Z,97909.94
2022-07-31T17:09:22.177Z,97911.59
2022-07-31T17:11:51.677Z,97914.34
2022-07-31T17:14:20.855Z,97892.31
2022-07-31T17:16:49.435Z,97907.72
2022-07-31T17:19:40.990Z,97918.22
2022-07-31T17:22:05.010Z,97891.47
2022-07-31T17:24:31.942Z,97906.66
2022-07-31T17:26:59.832Z,97921.22
2022-07-31T17:29:26.555Z,97906.09
2022-07-31T17:31:53.224Z,97899.47
2022-07-31T17:34:19.898Z,97913.22
2022-07-31T17:36:50.083Z,97924.25
2022-07-31T17:39:17.254Z,97874.69
2022-07-31T17:41:44.225Z,97892.31
2022-07-31T17:44:10.967Z,97921.22
2022-07-31T17:46:48.122Z,97894.44
2022-07-31T17:49:19.227Z,97910.97
2022-07-31T17:51:57.907Z,97885.34
2022-07-31T17:54:33.274Z,97912.84
2022-07-31T17:56:59.999Z,97916.41
2022-07-31T17:59:27.271Z,97893.84
2022-07-31T18:01:59.891Z,97897.13
2022-07-31T18:04:31.536Z,97931.84
2022-07-31T18:06:59.429Z,97909.81
2022-07-31T18:09:27.341Z,97926.03
2022-07-31T18:11:56.918Z,97905.38
2022-07-31T18:14:24.928Z,97897.34
2022-07-31T18:16:52.163Z,97915.31
2022-07-31T18:19:21.477Z,97894.16
2022-07-31T18:21:50.155Z,97918.38
2022-07-31T18:24:16.869Z,97921.38
2022-07-31T18:26:44.648Z,97907.56
2022-07-31T18:29:11.415Z,97934.03
2022-07-31T18:31:38.307Z,97919.44
2022-07-31T18:34:06.171Z,97919.63
2022-07-31T18:36:34.690Z,97913.03
2022-07-31T18:39:01.817Z,97959.25
2022-07-31T18:41:28.788Z,97958.72
2022-07-31T18:43:55.724Z,97937.75
2022-07-31T18:46:24.849Z,97970.00
2022-07-31T18:48:55.360Z,97971.94
2022-07-31T18:51:23.443Z,97964.72
2022-07-31T18:53:50.587Z,97956.97
2022-07-31T18:56:17.664Z,97983.41
2022-07-31T18:58:44.422Z,97961.63
2022-07-31T19:01:11.350Z,97943.44
2022-07-31T19:03:39.824Z,97968.25
2022-07-31T19:06:06.505Z,97955.56
2022-07-31T19:08:33.475Z,97951.63
2022-07-31T19:11:00.196Z,97941.72
2022-07-31T19:13:26.977Z,97978.69
2022-07-31T19:15:53.684Z,97967.41
2022-07-31T19:18:28.579Z,97977.59
2022-07-31T19:21:21.149Z,97943.41
2022-07-31T19:23:44.148Z,97964.09
2022-07-31T19:26:11.515Z,97941.22
2022-07-31T19:28:39.882Z,97955.91
2022-07-31T19:31:07.189Z,97962.75
2022-07-31T19:33:33.953Z,97944.81
2022-07-31T19:36:02.557Z,97975.75
2022-07-31T19:38:38.102Z,97981.28
2022-07-31T19:41:05.322Z,97974.94
2022-07-31T19:43:33.187Z,97969.44
2022-07-31T19:46:11.221Z,97972.53
2022-07-31T19:48:44.998Z,97972.81
2022-07-31T19:51:13.285Z,97956.03
2022-07-31T19:53:40.183Z,97979.22
2022-07-31T19:56:07.284Z,97972.28
2022-07-31T19:58:35.666Z,97991.34
2022-07-31T20:01:06.002Z,97958.56
2022-07-31T20:03:33.425Z,97986.41
2022-07-31T20:06:00.393Z,97963.25
2022-07-31T20:08:27.083Z,97973.75
2022-07-31T20:10:57.764Z,97963.81
2022-07-31T20:13:24.415Z,97987.00
2022-07-31T20:15:53.146Z,97961.38
2022-07-31T20:18:27.460Z,97970.19
2022-07-31T20:21:04.903Z,97989.75
2022-07-31T20:23:34.277Z,97977.06
2022-07-31T20:26:01.461Z,97966.88
2022-07-31T20:28:28.283Z,97978.47
2022-07-31T20:30:54.940Z,97941.75
2022-07-31T20:33:21.642Z,97942.03
2022-07-31T20:35:50.137Z,97950.31
2022-07-31T20:38:18.941Z,97991.97
2022-07-31T20:40:51.138Z,97989.78
2022-07-31T20:43:20.114Z,97977.66
2022-07-31T20:45:47.652Z,97981.25
2022-07-31T20:48:17.649Z,97972.44
2022-07-31T20:50:48.222Z,98000.81
2022-07-31T20:53:15.946Z,97995.84
2022-07-31T20:55:46.953Z,98001.63
2022-07-31T20:58:13.885Z,98000.81
2022-07-31T21:00:41.121Z,97996.09
2022-07-31T21:03:08.125Z,97984.72
2022-07-31T21:05:34.780Z,98007.53
2022-07-31T21:08:01.593Z,97977.19
2022-07-31T21:10:29.796Z,98002.22
2022-07-31T21:12:57.595Z,98013.81
2022-07-31T21:15:40.842Z,98008.81
2022-07-31T21:18:16.336Z,98017.84
2022-07-31T21:20:49.714Z,98002.94
2022-07-31T21:23:19.973Z,98024.16
2022-07-31T21:25:46.899Z,98017.72
2022-07-31T21:28:13.881Z,97990.13
2022-07-31T21:30:41.360Z,98017.72
2022-07-31T21:33:09.132Z,98039.16
2022-07-31T21:35:37.558Z,98004.59
2022-07-31T21:38:05.148Z,98005.97
2022-07-31T21:40:36.178Z,98044.47
2022-07-31T21:43:03.671Z,98043.88
2022-07-31T21:45:43.391Z,98031.47
2022-07-31T21:48:19.144Z,98054.47
2022-07-31T21:50:46.780Z,98025.16
2022-07-31T21:53:14.139Z,98034.56
2022-07-31T21:55:41.322Z,98049.41
2022-07-31T21:58:09.362Z,98027.56
2022-07-31T22:00:36.997Z,98041.63
2022-07-31T22:03:04.306Z,98032.22
2022-07-31T22:05:49.568Z,98040.16
2022-07-31T22:08:16.753Z,98022.09
2022-07-31T22:10:43.876Z,98026.28
2022-07-31T22:13:10.915Z,98040.97
2022-07-31T22:15:58.131Z,98015.06
2022-07-31T22:18:26.514Z,98027.03
2022-07-31T22:20:53.945Z,98045.78
2022-07-31T22:23:20.812Z,98035.50
2022-07-31T22:25:49.186Z,98017.81
2022-07-31T22:28:20.291Z,98026.59
2022-07-31T22:30:48.213Z,98039.56
2022-07-31T22:33:15.503Z,98033.91
2022-07-31T22:35:43.193Z,98025.63
2022-07-31T22:38:11.657Z,97997.44
2022-07-31T22:40:38.781Z,98033.59
2022-07-31T22:43:08.314Z,98045.72
2022-07-31T22:45:54.181Z,98046.03
2022-07-31T22:48:24.475Z,98000.44
2022-07-31T22:50:51.333Z,98021.63
2022-07-31T22:53:18.218Z,98034.81
2022-07-31T22:55:45.078Z,98034.84
2022-07-31T22:58:15.135Z,98029.56
2022-07-31T23:00:42.946Z,98036.47
2022-07-31T23:03:09.715Z,98009.38
2022-07-31T23:06:02.465Z,98027.22
2022-07-31T23:08:23.245Z,98019.69
2022-07-31T23:10:49.959Z,98020.03
2022-07-31T23:13:16.631Z,98006.53
2022-07-31T23:15:44.855Z,98006.31
2022-07-31T23:18:12.001Z,98004.19
2022-07-31T23:20:38.755Z,98013.06
2022-07-31T23:23:05.444Z,97989.34
2022-07-31T23:25:32.241Z,98014.66
2022-07-31T23:27:58.856Z,98018.66
2022-07-31T23:30:27.618Z,98028.53
2022-07-31T23:32:55.561Z,98015.34
2022-07-31T23:35:22.269Z,97994.72
2022-07-31T23:37:48.993Z,98024.81
2022-07-31T23:40:15.833Z,98023.00
2022-07-31T23:42:42.470Z,98006.88
2022-07-31T23:45:12.172Z,98018.38
2022-07-31T23:47:45.194Z,98023.94
2022-07-31T23:50:13.045Z,98006.94
2022-07-31T23:52:39.785Z,98014.44
2022-07-31T23:55:06.761Z,97998.13
2022-07-31T23:57:34.834Z,98021.53
